Time;durP1;ratioP1;P1;durP2;ratioP2;P2;SDS_P1;SDS_P2;PMS_P1;PMS_P2;Temp;Humidity;BMP_temperature;BMP_pressure;BME280_temperature;BME280_humidity;BME280_pressure;Samples;Min_cycle;Max_cycle;Signal;HPM_P1;HPM_P2
2022/09/22 00:00:42;;;;;;;5.20;3.35;;;6.90;74.80;;;;;;4976327;28;20034;-62
2022/09/22 00:03:08;;;;;;;3.90;3.50;;;6.80;74.90;;;;;;4995913;28;20061;-62
2022/09/22 00:05:34;;;;;;;4.43;3.63;;;6.90;75.20;;;;;;4998761;28;20136;-62
2022/09/22 00:08:00;;;;;;;4.32;3.58;;;6.80;75.30;;;;;;4998811;28;20541;-62
2022/09/22 00:10:27;;;;;;;3.80;3.40;;;6.80;75.30;;;;;;4995289;28;20025;-62
2022/09/22 00:12:53;;;;;;;3.67;3.38;;;6.80;75.30;;;;;;4996257;28;20065;-62
2022/09/22 00:15:19;;;;;;;4.32;3.30;;;6.80;75.30;;;;;;4998344;28;20387;-62
2022/09/22 00:17:45;;;;;;;3.72;3.25;;;6.80;75.40;;;;;;4996609;28;20180;-62
2022/09/22 00:20:14;;;;;;;4.20;3.28;;;6.80;75.60;;;;;;4996749;28;20042;-62
2022/09/22 00:22:40;;;;;;;4.18;3.58;;;6.70;75.50;;;;;;4993788;28;20349;-62
2022/09/22 00:25:07;;;;;;;5.57;3.63;;;6.70;75.40;;;;;;4994168;28;20026;-63
2022/09/22 00:27:33;;;;;;;3.55;3.15;;;6.70;75.60;;;;;;4995620;28;20041;-62
2022/09/22 00:29:59;;;;;;;4.25;3.45;;;6.60;75.70;;;;;;4995870;28;20033;-61
2022/09/22 00:32:25;;;;;;;5.32;3.40;;;6.60;75.70;;;;;;4995049;28;20030;-63
2022/09/22 00:34:51;;;;;;;9.02;3.50;;;6.60;75.90;;;;;;4992721;28;20041;-63
2022/09/22 00:37:16;;;;;;;4.55;3.58;;;6.60;75.90;;;;;;4994229;28;20034;-61
2022/09/22 00:39:43;;;;;;;4.50;3.17;;;6.60;76.00;;;;;;4992504;28;22098;-63
2022/09/22 00:42:11;;;;;;;4.03;3.30;;;6.60;75.90;;;;;;4991247;28;20030;-63
2022/09/22 00:44:43;;;;;;;4.65;3.40;;;6.60;75.80;;;;;;4989871;28;20036;-62
2022/09/22 00:47:33;;;;;;;3.70;3.20;;;6.70;76.00;;;;;;4994029;28;20054;-63
2022/09/22 00:50:18;;;;;;;3.95;3.50;;;6.70;75.80;;;;;;4994976;28;20056;-63
2022/09/22 00:52:46;;;;;;;;;;;6.70;75.60;;;;;;4991568;28;20058;-63
2022/09/22 00:55:17;;;;;;;3.45;3.15;;;6.70;75.80;;;;;;4995390;28;19964;-62
2022/09/22 00:57:45;;;;;;;3.63;3.15;;;6.70;74.70;;;;;;4991968;28;20049;-63
2022/09/22 01:00:12;;;;;;;3.50;3.20;;;6.60;74.70;;;;;;4996313;28;20097;-62
2022/09/22 01:02:38;;;;;;;4.75;3.47;;;6.60;74.80;;;;;;4996057;28;20528;-63
2022/09/22 01:05:04;;;;;;;4.10;3.55;;;6.60;75.00;;;;;;4990719;28;20406;-61
2022/09/22 01:07:31;;;;;;;3.97;3.50;;;6.50;75.10;;;;;;4992736;28;20615;-62
2022/09/22 01:09:57;;;;;;;5.13;3.40;;;6.40;75.20;;;;;;4993359;28;20042;-62
2022/09/22 01:12:24;;;;;;;4.18;3.58;;;6.40;75.30;;;;;;4993033;28;20033;-61
2022/09/22 01:15:19;;;;;;;3.75;3.42;;;6.30;75.50;;;;;;4994018;28;20462;-62
2022/09/22 01:18:11;;;;;;;4.57;3.65;;;6.30;75.80;;;;;;4991932;28;20035;-62
2022/09/22 01:20:49;;;;;;;3.90;3.53;;;6.30;76.30;;;;;;4993082;28;20034;-61
2022/09/22 01:23:51;;;;;;;5.82;3.80;;;6.20;75.70;;;;;;4992177;28;20041;-63
2022/09/22 01:26:38;;;;;;;4.68;3.70;;;6.20;76.20;;;;;;5008343;28;20494;-62
2022/09/22 01:29:13;;;;;;;4.93;3.60;;;6.20;76.00;;;;;;4993801;28;20121;-61
2022/09/22 01:31:47;;;;;;;4.25;3.85;;;6.10;75.50;;;;;;4994159;28;20045;-62
2022/09/22 01:34:24;;;;;;;4.05;3.67;;;6.10;75.60;;;;;;4995610;28;20439;-61
2022/09/22 01:37:11;;;;;;;4.25;3.75;;;6.00;76.00;;;;;;4994590;28;20040;-63
2022/09/22 01:39:50;;;;;;;4.90;3.67;;;6.00;76.60;;;;;;4994124;28;20125;-61
2022/09/22 01:42:35;;;;;;;4.47;3.72;;;5.90;76.60;;;;;;4995690;28;20037;-62
2022/09/22 01:45:15;;;;;;;4.35;3.95;;;5.90;76.90;;;;;;4974291;28;20117;-63
2022/09/22 01:47:47;;;;;;;5.10;3.90;;;5.90;77.00;;;;;;4986007;28;20038;-61
2022/09/22 01:50:28;;;;;;;3.85;3.42;;;5.90;76.70;;;;;;4993932;28;20064;-61
2022/09/22 01:52:56;;;;;;;7.45;3.85;;;5.80;77.10;;;;;;4992839;28;20050;-62
2022/09/22 01:55:32;;;;;;;4.82;3.50;;;5.90;76.70;;;;;;4995985;28;20042;-62
2022/09/22 01:58:11;;;;;;;4.78;3.67;;;5.90;76.90;;;;;;4992096;28;20038;-62
2022/09/22 02:00:39;;;;;;;5.05;3.30;;;5.90;76.90;;;;;;4994419;28;20544;-62
2022/09/22 02:03:24;;;;;;;4.10;3.70;;;5.90;76.60;;;;;;4994622;28;20457;-62
2022/09/22 02:05:55;;;;;;;5.15;3.60;;;5.90;77.10;;;;;;4997094;28;20462;-61
2022/09/22 02:08:34;;;;;;;3.85;3.55;;;5.90;76.70;;;;;;4997371;28;20069;-62
2022/09/22 02:11:06;;;;;;;5.20;3.47;;;5.90;76.60;;;;;;4994725;28;20041;-61
2022/09/22 02:13:32;;;;;;;4.13;3.70;;;5.80;76.20;;;;;;4997160;28;20039;-62
2022/09/22 02:16:00;;;;;;;4.40;3.47;;;5.90;76.20;;;;;;4996851;28;20040;-63
2022/09/22 02:18:44;;;;;;;4.50;3.80;;;5.90;76.20;;;;;;4997576;28;20514;-63
2022/09/22 02:21:11;;;;;;;4.28;3.88;;;5.80;76.30;;;;;;4996434;28;20038;-62
2022/09/22 02:23:37;;;;;;;6.15;3.67;;;5.80;76.10;;;;;;4993251;28;20438;-63
2022/09/22 02:26:05;;;;;;;4.00;3.63;;;5.80;76.20;;;;;;4997782;28;20035;-62
2022/09/22 02:28:33;;;;;;;3.97;3.58;;;5.70;76.30;;;;;;4996276;28;20030;-62
2022/09/22 02:31:02;;;;;;;5.30;3.92;;;5.70;76.40;;;;;;4997145;28;20637;-62
2022/09/22 02:33:32;;;;;;;5.30;4.00;;;5.60;76.40;;;;;;4996818;28;20052;-62
2022/09/22 02:36:17;;;;;;;6.03;4.22;;;5.60;76.60;;;;;;4998462;28;20816;-60
2022/09/22 02:39:08;;;;;;;4.75;4.28;;;5.50;77.30;;;;;;4997988;28;20034;-62
2022/09/22 02:41:55;;;;;;;5.05;4.22;;;5.50;77.60;;;;;;4995747;28;20034;-62
2022/09/22 02:44:30;;;;;;;5.55;4.05;;;5.40;76.90;;;;;;4997402;28;20041;-61
2022/09/22 02:47:04;;;;;;;4.70;3.92;;;5.50;77.30;;;;;;4997868;28;20033;-62
2022/09/22 02:49:31;;;;;;;5.25;4.15;;;5.40;77.30;;;;;;4994669;28;20044;-63
2022/09/22 02:51:57;;;;;;;7.47;3.95;;;5.40;77.10;;;;;;4982098;28;20113;-63
2022/09/22 02:54:23;;;;;;;4.60;4.03;;;5.50;77.20;;;;;;4978148;28;20035;-62
2022/09/22 02:56:49;;;;;;;6.05;4.10;;;5.40;77.20;;;;;;4976388;28;20026;-61
2022/09/22 02:59:14;;;;;;;4.60;3.80;;;5.40;77.30;;;;;;4978622;28;20529;-62
2022/09/22 03:01:40;;;;;;;5.72;3.88;;;5.40;77.30;;;;;;4976351;28;20129;-61
2022/09/22 03:04:06;;;;;;;5.63;4.18;;;5.40;77.30;;;;;;4978024;28;20092;-62
2022/09/22 03:06:32;;;;;;;4.72;4.07;;;5.40;77.20;;;;;;4977043;28;20042;-61
2022/09/22 03:08:57;;;;;;;5.00;3.97;;;5.40;77.30;;;;;;4976687;28;20165;-61
2022/09/22 03:11:24;;;;;;;6.00;4.78;;;5.40;77.40;;;;;;4974728;28;21079;-62
2022/09/22 03:13:51;;;;;;;6.30;4.90;;;5.30;77.40;;;;;;4975807;28;20042;-61
2022/09/22 03:16:16;;;;;;;6.82;4.72;;;5.30;77.60;;;;;;4977812;28;20035;-61
2022/09/22 03:18:42;;;;;;;6.10;4.88;;;5.30;77.70;;;;;;4974852;28;20549;-62
2022/09/22 03:21:07;;;;;;;5.30;4.80;;;5.30;77.90;;;;;;4975671;28;20517;-61
2022/09/22 03:23:33;;;;;;;5.25;4.55;;;5.20;78.90;;;;;;4975325;28;20069;-62
2022/09/22 03:25:58;;;;;;;6.60;5.15;;;5.20;78.20;;;;;;4973432;28;20034;-63
2022/09/22 03:28:24;;;;;;;5.35;4.53;;;5.20;78.20;;;;;;4974649;28;20046;-60
2022/09/22 03:30:50;;;;;;;5.70;4.78;;;5.20;78.30;;;;;;4976956;28;20117;-62
2022/09/22 03:33:15;;;;;;;6.03;4.78;;;5.20;78.30;;;;;;4977452;28;20038;-59
2022/09/22 03:35:41;;;;;;;6.50;5.00;;;5.20;78.30;;;;;;4975419;28;20049;-61
2022/09/22 03:38:07;;;;;;;6.03;4.57;;;5.20;78.20;;;;;;4977829;28;20654;-62
2022/09/22 03:40:32;;;;;;;5.55;4.65;;;5.20;78.10;;;;;;4973299;28;20121;-59
2022/09/22 03:42:58;;;;;;;5.40;4.70;;;5.20;78.30;;;;;;4976597;28;20284;-63
2022/09/22 03:45:24;;;;;;;6.18;4.55;;;5.20;78.40;;;;;;4973798;28;20069;-62
2022/09/22 03:47:49;;;;;;;5.95;4.93;;;5.20;78.40;;;;;;4977112;28;20085;-62
2022/09/22 03:50:15;;;;;;;5.40;4.90;;;5.20;78.40;;;;;;4975612;28;20426;-60
2022/09/22 03:52:42;;;;;;;6.55;5.00;;;5.20;78.40;;;;;;4973235;28;20045;-62
2022/09/22 03:55:09;;;;;;;8.55;5.25;;;5.20;78.30;;;;;;4974956;28;20579;-61
2022/09/22 03:57:34;;;;;;;5.78;5.15;;;5.20;78.30;;;;;;4977242;28;20851;-62
2022/09/22 04:00:00;;;;;;;5.38;4.88;;;5.20;78.30;;;;;;4973926;28;20176;-63
2022/09/22 04:02:27;;;;;;;7.10;5.20;;;5.20;78.30;;;;;;4976802;28;20130;-62
2022/09/22 04:04:52;;;;;;;7.97;6.63;;;5.20;78.30;;;;;;4976844;28;20060;-61
2022/09/22 04:07:18;;;;;;;9.77;7.60;;;5.20;78.20;;;;;;4973967;28;20522;-62
2022/09/22 04:09:43;;;;;;;6.57;5.75;;;5.20;78.20;;;;;;4974528;28;20398;-60
2022/09/22 04:12:09;;;;;;;7.57;5.45;;;5.20;78.10;;;;;;4976607;28;20552;-62
2022/09/22 04:14:35;;;;;;;7.88;5.00;;;5.20;78.20;;;;;;4977731;28;20101;-63
2022/09/22 04:17:00;;;;;;;6.15;5.25;;;5.10;78.10;;;;;;4977238;28;20038;-61
2022/09/22 04:19:26;;;;;;;6.00;5.22;;;5.10;78.10;;;;;;4977995;28;20037;-62
2022/09/22 04:21:52;;;;;;;6.35;4.93;;;5.10;78.10;;;;;;4976788;28;20046;-62
2022/09/22 04:24:17;;;;;;;5.80;4.93;;;5.10;78.30;;;;;;4977817;28;20161;-62
2022/09/22 04:26:43;;;;;;;5.43;4.93;;;5.10;78.30;;;;;;4976170;28;20125;-62
2022/09/22 04:29:08;;;;;;;5.10;4.60;;;5.10;78.30;;;;;;4976746;28;20035;-62
2022/09/22 04:31:34;;;;;;;5.97;5.00;;;5.10;78.30;;;;;;4975875;28;20039;-62
2022/09/22 04:33:59;;;;;;;7.38;5.40;;;5.00;78.20;;;;;;4974610;28;20065;-62
2022/09/22 04:36:25;;;;;;;6.78;5.53;;;5.00;78.30;;;;;;4972933;28;20027;-62
2022/09/22 04:38:51;;;;;;;6.57;5.88;;;5.00;78.30;;;;;;4977975;28;20031;-61
2022/09/22 04:41:16;;;;;;;7.95;6.20;;;5.00;78.40;;;;;;4978330;28;20133;-62
2022/09/22 04:43:42;;;;;;;8.02;5.68;;;4.90;78.50;;;;;;4979061;28;20042;-62
2022/09/22 04:46:08;;;;;;;8.27;5.90;;;4.90;78.50;;;;;;4978283;28;20658;-62
2022/09/22 04:48:33;;;;;;;8.40;5.85;;;4.90;78.50;;;;;;4978193;28;20035;-62
2022/09/22 04:50:59;;;;;;;11.23;5.55;;;4.90;78.50;;;;;;4978686;28;20042;-61
2022/09/22 04:53:25;;;;;;;8.25;5.97;;;4.90;78.50;;;;;;4978577;28;20108;-60
2022/09/22 04:55:50;;;;;;;7.28;5.65;;;4.90;78.50;;;;;;4978771;28;20452;-63
2022/09/22 04:58:16;;;;;;;9.68;6.22;;;4.90;78.50;;;;;;4978545;28;20466;-61
2022/09/22 05:00:42;;;;;;;10.52;7.10;;;4.90;78.50;;;;;;4978088;28;20049;-62
2022/09/22 05:03:09;;;;;;;7.93;6.03;;;4.80;78.50;;;;;;4979388;28;20054;-63
2022/09/22 05:05:35;;;;;;;6.90;6.10;;;4.80;78.60;;;;;;4978527;28;20317;-62
2022/09/22 05:08:01;;;;;;;10.05;6.57;;;4.80;78.80;;;;;;4978134;28;20588;-62
2022/09/22 05:10:30;;;;;;;9.75;7.10;;;4.80;79.00;;;;;;4976023;28;20135;-62
2022/09/22 05:12:57;;;;;;;8.63;6.80;;;4.80;79.00;;;;;;4974448;28;20046;-62
2022/09/22 05:15:24;;;;;;;9.00;7.10;;;4.80;79.20;;;;;;4976321;28;20139;-61
2022/09/22 05:17:51;;;;;;;7.28;5.97;;;4.80;79.20;;;;;;4975351;28;20045;-62
2022/09/22 05:20:19;;;;;;;7.57;6.45;;;4.80;79.30;;;;;;4977231;28;20038;-61
2022/09/22 05:22:46;;;;;;;7.75;6.70;;;4.80;79.20;;;;;;4977235;28;20045;-61
2022/09/22 05:25:14;;;;;;;9.30;6.95;;;4.80;79.20;;;;;;4975328;28;20039;-61
2022/09/22 05:27:54;;;;;;;11.02;7.45;;;4.80;79.20;;;;;;4977975;28;20039;-61
2022/09/22 05:30:22;;;;;;;10.23;7.68;;;4.80;79.40;;;;;;4977639;28;22011;-61
2022/09/22 05:32:48;;;;;;;11.82;7.22;;;4.80;79.20;;;;;;4973489;28;20065;-61
2022/09/22 05:35:16;;;;;;;11.65;7.50;;;4.80;79.30;;;;;;4977666;28;20035;-62
2022/09/22 05:37:43;;;;;;;13.40;7.97;;;4.80;79.30;;;;;;4977177;28;20479;-62
2022/09/22 05:40:10;;;;;;;14.52;8.18;;;4.80;79.40;;;;;;4977086;28;20069;-62
2022/09/22 05:42:43;;;;;;;14.40;8.95;;;4.80;79.50;;;;;;4978874;28;20125;-62
2022/09/22 05:45:09;;;;;;;14.68;8.75;;;4.90;79.90;;;;;;4979522;28;20510;-61
2022/09/22 05:47:35;;;;;;;19.25;10.48;;;4.90;79.70;;;;;;4980387;28;20558;-60
2022/09/22 05:50:00;;;;;;;18.73;11.38;;;4.90;79.70;;;;;;4978469;28;20050;-62
2022/09/22 05:52:26;;;;;;;28.38;14.73;;;4.90;79.80;;;;;;4981547;28;20066;-61
2022/09/22 05:54:51;;;;;;;28.58;14.45;;;4.90;80.00;;;;;;5000530;28;20035;-60
2022/09/22 05:57:20;;;;;;;30.83;15.20;;;4.90;80.00;;;;;;5001348;28;20511;-62
2022/09/22 05:59:46;;;;;;;28.20;14.55;;;4.90;80.20;;;;;;5001404;28;20617;-62
2022/09/22 06:02:11;;;;;;;23.42;13.68;;;4.90;80.20;;;;;;5000646;28;20117;-61
2022/09/22 06:04:37;;;;;;;24.85;14.10;;;5.00;80.50;;;;;;5000470;28;20038;-61
2022/09/22 06:07:05;;;;;;;23.60;13.95;;;5.00;80.60;;;;;;5001139;28;20034;-62
2022/09/22 06:09:30;;;;;;;23.95;12.05;;;5.00;80.90;;;;;;5001003;28;20045;-61
2022/09/22 06:11:56;;;;;;;17.30;10.43;;;5.00;81.10;;;;;;4998193;28;20054;-61
2022/09/22 06:14:21;;;;;;;15.40;10.77;;;5.00;81.40;;;;;;4999838;28;20485;-61
2022/09/22 06:16:47;;;;;;;15.25;9.63;;;5.10;81.70;;;;;;5000137;28;20478;-61
2022/09/22 06:19:13;;;;;;;16.23;9.30;;;5.20;82.00;;;;;;4998113;28;20049;-61
2022/09/22 06:21:39;;;;;;;15.10;8.98;;;5.20;82.10;;;;;;4998756;28;20565;-59
2022/09/22 06:24:05;;;;;;;11.13;7.88;;;5.30;82.10;;;;;;4999014;28;20084;-61
2022/09/22 06:26:31;;;;;;;12.90;8.23;;;5.40;82.50;;;;;;4999550;28;20030;-62
2022/09/22 06:28:57;;;;;;;10.73;7.32;;;5.50;83.00;;;;;;4997514;28;20030;-61
2022/09/22 06:31:23;;;;;;;9.98;7.22;;;5.60;83.50;;;;;;4998088;28;20652;-62
2022/09/22 06:33:49;;;;;;;10.55;7.80;;;5.70;83.70;;;;;;4996569;28;20531;-62
2022/09/22 06:36:26;;;;;;;10.20;7.53;;;5.80;83.90;;;;;;4998962;28;20128;-62
2022/09/22 06:38:53;;;;;;;11.00;7.53;;;5.90;84.30;;;;;;4999785;28;20035;-62
2022/09/22 06:41:19;;;;;;;9.55;7.40;;;6.00;84.30;;;;;;4999405;28;20125;-62
2022/09/22 06:43:46;;;;;;;8.60;7.70;;;6.10;84.60;;;;;;4997753;28;20506;-62
2022/09/22 06:46:12;;;;;;;10.52;7.25;;;6.20;84.70;;;;;;4996758;28;20153;-62
2022/09/22 06:48:38;;;;;;;10.63;7.60;;;6.30;84.70;;;;;;4999170;28;20105;-60
2022/09/22 06:51:04;;;;;;;12.13;7.53;;;6.40;84.90;;;;;;4995831;28;20189;-62
2022/09/22 06:53:29;;;;;;;10.25;7.85;;;6.50;84.90;;;;;;4998902;28;20033;-59
2022/09/22 06:55:56;;;;;;;12.90;8.18;;;6.60;84.70;;;;;;4998670;28;20033;-61
2022/09/22 06:58:22;;;;;;;10.82;7.85;;;6.70;84.80;;;;;;4998090;28;20520;-62
2022/09/22 07:00:49;;;;;;;10.90;7.93;;;6.80;84.80;;;;;;4998651;28;20080;-62
2022/09/22 07:03:25;;;;;;;9.20;7.60;;;6.90;84.70;;;;;;4997825;28;20466;-60
2022/09/22 07:05:56;;;;;;;10.57;7.18;;;6.90;84.80;;;;;;4998368;28;20053;-61
2022/09/22 07:08:23;;;;;;;8.85;7.20;;;7.10;85.00;;;;;;4999364;28;20041;-61
2022/09/22 07:10:52;;;;;;;9.73;7.47;;;7.10;84.60;;;;;;4997416;28;20037;-63
2022/09/22 07:13:18;;;;;;;9.55;6.97;;;7.20;85.20;;;;;;4997647;28;20606;-60
2022/09/22 07:15:43;;;;;;;10.52;7.50;;;7.30;84.80;;;;;;4997686;28;20035;-62
2022/09/22 07:18:09;;;;;;;10.02;7.78;;;7.40;84.80;;;;;;4998429;28;20064;-62
2022/09/22 07:20:35;;;;;;;10.00;8.00;;;7.50;84.60;;;;;;4996528;28;20038;-62
2022/09/22 07:23:00;;;;;;;9.00;7.45;;;7.50;84.80;;;;;;4995205;28;20028;-62
2022/09/22 07:25:27;;;;;;;10.43;7.00;;;7.60;84.80;;;;;;4998127;28;20239;-62
2022/09/22 07:27:56;;;;;;;12.23;7.90;;;7.70;84.50;;;;;;4996920;28;20088;-61
2022/09/22 07:30:25;;;;;;;9.10;7.30;;;7.70;84.60;;;;;;4997111;28;20114;-60
2022/09/22 07:32:50;;;;;;;9.95;7.30;;;7.80;84.70;;;;;;4976381;28;20234;-62
2022/09/22 07:35:16;;;;;;;9.23;6.95;;;7.90;84.60;;;;;;4984862;28;21942;-62
2022/09/22 07:37:41;;;;;;;10.38;7.65;;;8.00;84.70;;;;;;4996881;28;20049;-60
2022/09/22 07:40:07;;;;;;;9.25;7.15;;;8.00;84.60;;;;;;4996910;28;20077;-62
2022/09/22 07:42:33;;;;;;;9.15;7.32;;;8.10;84.50;;;;;;4996491;28;20034;-61
2022/09/22 07:45:14;;;;;;;9.75;7.00;;;8.20;84.50;;;;;;4993827;28;20033;-60
2022/09/22 07:50:53;;;;;;;10.60;6.63;;;8.40;84.50;;;;;;4978604;28;20610;-62
2022/09/22 07:53:19;;;;;;;11.45;7.05;;;8.50;84.50;;;;;;4978895;28;20125;-62
2022/09/22 07:55:45;;;;;;;10.05;7.55;;;8.60;84.10;;;;;;4979342;28;20526;-59
2022/09/22 07:58:11;;;;;;;8.80;6.97;;;8.60;84.00;;;;;;4990243;28;20042;-62
2022/09/22 08:00:36;;;;;;;9.55;6.80;;;8.80;84.10;;;;;;4996231;28;20038;-62
2022/09/22 08:03:02;;;;;;;9.18;7.50;;;8.80;84.00;;;;;;4990877;28;20046;-61
2022/09/22 08:05:28;;;;;;;9.90;7.63;;;8.90;84.00;;;;;;4997791;28;20064;-61
2022/09/22 08:07:57;;;;;;;8.98;6.90;;;9.00;83.80;;;;;;4997655;28;20576;-61
2022/09/22 08:10:23;;;;;;;7.38;6.18;;;9.10;83.80;;;;;;4998190;28;20037;-62
2022/09/22 08:12:51;;;;;;;7.47;6.68;;;9.30;83.90;;;;;;4993651;28;20116;-60
2022/09/22 08:15:21;;;;;;;7.40;6.45;;;9.30;83.80;;;;;;4996597;28;20629;-61
2022/09/22 08:17:47;;;;;;;8.40;6.22;;;9.40;83.70;;;;;;4995459;28;20518;-60
2022/09/22 08:20:12;;;;;;;8.50;6.60;;;9.50;83.30;;;;;;4995816;28;20041;-62
2022/09/22 08:22:38;;;;;;;10.65;6.70;;;9.60;83.10;;;;;;4994802;28;20038;-62
2022/09/22 08:25:04;;;;;;;8.73;6.18;;;9.70;83.00;;;;;;4997652;28;20266;-63
2022/09/22 08:27:30;;;;;;;8.02;6.32;;;9.80;82.90;;;;;;4996969;28;20035;-61
2022/09/22 08:29:55;;;;;;;6.88;6.18;;;9.90;82.90;;;;;;4997004;28;21148;-61
2022/09/22 08:32:21;;;;;;;7.47;5.80;;;9.90;82.60;;;;;;4996105;28;20126;-63
2022/09/22 08:34:46;;;;;;;6.28;5.47;;;10.00;82.40;;;;;;4998003;28;20040;-61
2022/09/22 08:37:12;;;;;;;7.70;5.78;;;10.20;82.40;;;;;;4997978;28;20522;-61
2022/09/22 08:39:38;;;;;;;8.20;6.07;;;10.30;82.40;;;;;;4996696;28;20040;-61
2022/09/22 08:42:08;;;;;;;6.28;5.22;;;10.30;82.00;;;;;;4998487;28;20041;-60
2022/09/22 08:44:40;;;;;;;7.10;5.15;;;10.50;81.90;;;;;;4996898;28;20580;-62
2022/09/22 08:47:12;;;;;;;6.15;4.55;;;10.60;81.70;;;;;;4994991;28;20580;-62
2022/09/22 08:53:05;;;;;;;3.72;3.42;;;10.80;81.20;;;;;;4996262;28;20037;-62
2022/09/22 08:55:31;;;;;;;4.50;3.38;;;11.00;80.30;;;;;;5013642;28;20068;-62
2022/09/22 08:58:36;;;;;;;3.72;3.30;;;11.10;80.00;;;;;;5001462;28;20038;-61
2022/09/22 09:01:38;;;;;;;3.43;3.13;;;11.30;79.10;;;;;;4988949;28;20039;-61
2022/09/22 09:04:29;;;;;;;3.92;3.05;;;11.40;78.60;;;;;;4995250;28;20019;-62
2022/09/22 09:07:18;;;;;;;2.75;2.50;;;11.50;78.20;;;;;;4995835;28;20033;-62
2022/09/22 09:10:22;;;;;;;2.63;2.42;;;11.70;78.00;;;;;;5000704;28;20048;-61
2022/09/22 09:13:07;;;;;;;3.05;2.35;;;11.80;77.50;;;;;;4998061;28;20532;-62
2022/09/22 09:15:42;;;;;;;2.65;2.38;;;11.90;76.60;;;;;;4999164;28;20049;-61
2022/09/22 09:18:15;;;;;;;2.42;2.22;;;12.00;76.80;;;;;;4999435;28;20026;-62
2022/09/22 09:20:46;;;;;;;2.17;1.92;;;12.10;76.10;;;;;;4997009;28;20502;-62
2022/09/22 09:23:22;;;;;;;3.17;1.90;;;12.20;75.70;;;;;;4996674;28;20041;-63
2022/09/22 09:25:53;;;;;;;2.80;2.08;;;12.30;75.10;;;;;;4997310;28;20045;-62
2022/09/22 09:28:34;;;;;;;2.47;2.00;;;12.40;74.90;;;;;;4997562;28;20058;-61
2022/09/22 09:31:08;;;;;;;2.10;1.77;;;12.50;74.80;;;;;;4995580;28;20359;-61
2022/09/22 09:33:52;;;;;;;1.83;1.70;;;12.70;74.90;;;;;;4997294;28;20029;-62
2022/09/22 09:36:21;;;;;;;1.90;1.60;;;12.70;73.90;;;;;;4995908;28;20025;-62
2022/09/22 09:38:54;;;;;;;3.97;2.00;;;12.90;73.90;;;;;;4998677;28;20293;-62
2022/09/22 09:41:23;;;;;;;1.98;1.60;;;13.00;73.00;;;;;;4996050;28;20044;-62
2022/09/22 09:43:53;;;;;;;1.70;1.60;;;13.10;73.10;;;;;;4996353;28;20129;-62
2022/09/22 09:46:28;;;;;;;1.75;1.65;;;13.20;72.80;;;;;;4979863;28;20474;-62
2022/09/22 09:49:04;;;;;;;1.63;1.52;;;13.30;71.90;;;;;;4975045;28;20042;-60
2022/09/22 09:51:34;;;;;;;1.98;1.60;;;13.30;71.10;;;;;;4975337;28;20053;-61
2022/09/22 09:54:04;;;;;;;1.50;1.40;;;13.50;71.20;;;;;;4974599;28;20034;-62
2022/09/22 09:56:31;;;;;;;1.95;1.50;;;13.60;70.80;;;;;;4976655;28;20652;-61
2022/09/22 10:01:53;;;;;;;2.47;1.40;;;13.70;69.70;;;;;;4975829;28;20057;-62
2022/09/22 10:04:36;;;;;;;1.85;1.20;;;13.80;71.10;;;;;;4975326;28;20190;-62
2022/09/22 10:07:21;;;;;;;1.20;1.10;;;14.00;68.60;;;;;;4982476;28;20109;-62
2022/09/22 10:09:48;;;;;;;;;;;14.10;67.20;;;;;;4996350;28;20100;-62
2022/09/22 10:12:26;;;;;;;0.88;0.75;;;14.20;69.00;;;;;;4994359;28;19917;-63
2022/09/22 10:14:54;;;;;;;2.40;0.90;;;14.30;67.90;;;;;;4998034;28;20514;-62
2022/09/22 10:17:28;;;;;;;1.23;0.77;;;14.30;68.10;;;;;;4996468;28;20038;-60
2022/09/22 10:20:15;;;;;;;0.82;0.80;;;14.40;66.90;;;;;;4995899;28;20601;-62
2022/09/22 10:22:41;;;;;;;2.17;0.80;;;14.50;66.70;;;;;;4996612;28;20034;-63
2022/09/22 10:25:19;;;;;;;0.75;0.70;;;14.60;66.80;;;;;;4993922;28;20632;-62
2022/09/22 10:28:04;;;;;;;0.82;0.70;;;14.60;65.10;;;;;;4999950;28;20034;-62
2022/09/22 10:30:32;;;;;;;1.40;0.90;;;14.70;64.80;;;;;;4999788;28;20042;-62
2022/09/22 10:33:11;;;;;;;0.82;0.63;;;14.80;64.80;;;;;;4999162;28;20844;-63
2022/09/22 10:35:37;;;;;;;0.60;0.60;;;14.80;64.30;;;;;;5000743;28;20406;-62
2022/09/22 10:38:17;;;;;;;2.47;0.52;;;14.90;64.50;;;;;;5001210;28;20034;-62
2022/09/22 10:40:47;;;;;;;2.38;0.73;;;15.00;62.60;;;;;;4998749;28;20053;-64
2022/09/22 10:43:35;;;;;;;0.43;0.43;;;15.00;63.20;;;;;;5001598;28;20037;-62
2022/09/22 10:46:33;;;;;;;0.40;0.40;;;15.10;62.20;;;;;;4999986;28;20121;-62
2022/09/22 10:49:20;;;;;;;0.80;0.68;;;15.20;62.00;;;;;;4984488;28;20041;-60
2022/09/22 10:52:04;;;;;;;1.42;0.68;;;15.30;62.90;;;;;;4998593;28;20065;-64
2022/09/22 10:54:48;;;;;;;0.70;0.60;;;15.30;63.00;;;;;;4999235;28;20121;-62
2022/09/22 10:57:29;;;;;;;0.50;0.50;;;15.50;61.30;;;;;;4999230;28;20621;-63
2022/09/22 11:00:07;;;;;;;0.95;0.60;;;15.50;60.60;;;;;;4999102;28;20489;-61
2022/09/22 11:02:39;;;;;;;1.15;0.50;;;15.60;60.80;;;;;;4999335;28;20428;-63
2022/09/22 11:12:14;;;;;;;4.35;0.60;;;15.70;61.30;;;;;;4999269;28;20109;-61
2022/09/22 11:14:22;;;;;;;0.50;0.50;;;15.90;60.50;;;;;;4998989;28;20575;-62
2022/09/22 11:16:47;;;;;;;0.73;0.60;;;16.00;59.40;;;;;;4983900;28;20037;-61
2022/09/22 11:19:48;;;;;;;0.70;0.40;;;16.10;59.90;;;;;;4997571;28;21086;-63
2022/09/22 11:22:33;;;;;;;0.70;0.40;;;16.20;58.50;;;;;;4996909;28;20127;-63
2022/09/22 11:25:18;;;;;;;;;;;16.30;58.40;;;;;;4984495;28;20038;-62
2022/09/22 11:28:07;;;;;;;0.40;0.40;;;16.30;60.30;;;;;;4999770;28;19918;-60
2022/09/22 11:30:51;;;;;;;2.92;0.55;;;16.40;58.50;;;;;;4998297;28;20528;-63
2022/09/22 11:33:16;;;;;;;2.40;0.40;;;16.50;59.00;;;;;;5000047;28;20502;-63
2022/09/22 11:36:07;;;;;;;1.75;0.30;;;16.60;58.80;;;;;;4998305;28;20267;-63
2022/09/22 11:39:12;;;;;;;0.82;0.60;;;16.60;57.80;;;;;;4998116;28;20657;-63
2022/09/22 11:41:54;;;;;;;0.80;0.43;;;16.70;57.10;;;;;;4997559;28;20046;-63
2022/09/22 11:44:30;;;;;;;0.75;0.38;;;16.70;57.60;;;;;;4998986;28;20034;-63
2022/09/22 11:47:28;;;;;;;0.50;0.50;;;16.80;57.00;;;;;;5000192;28;20041;-63
2022/09/22 11:50:24;;;;;;;2.65;0.50;;;16.90;55.70;;;;;;4998980;28;20049;-63
2022/09/22 11:52:50;;;;;;;0.40;0.40;;;16.90;55.50;;;;;;4996861;28;20042;-62
2022/09/22 11:55:24;;;;;;;0.47;0.38;;;17.00;56.60;;;;;;4997511;28;20040;-63
2022/09/22 11:57:57;;;;;;;1.10;0.40;;;17.00;56.00;;;;;;4999409;28;20054;-63
2022/09/22 12:00:22;;;;;;;0.55;0.50;;;17.00;55.40;;;;;;4997762;28;20121;-61
2022/09/22 12:02:55;;;;;;;0.30;0.30;;;17.00;55.10;;;;;;4998225;28;20117;-61
2022/09/22 12:05:30;;;;;;;0.95;0.40;;;17.10;55.10;;;;;;4996206;28;20053;-61
2022/09/22 12:08:05;;;;;;;0.50;0.47;;;17.10;54.40;;;;;;4998071;28;20061;-62
2022/09/22 12:10:40;;;;;;;0.50;0.50;;;17.10;55.00;;;;;;4979034;28;20489;-63
2022/09/22 12:13:25;;;;;;;0.98;0.57;;;17.10;54.80;;;;;;4977286;28;20042;-63
2022/09/22 12:16:10;;;;;;;1.42;0.43;;;17.20;54.50;;;;;;4979448;28;20129;-63
2022/09/22 12:18:52;;;;;;;1.15;0.57;;;17.20;53.90;;;;;;4977916;28;20546;-63
2022/09/22 12:21:39;;;;;;;2.15;0.70;;;17.20;54.30;;;;;;4977986;28;20126;-62
2022/09/22 12:24:10;;;;;;;0.40;0.40;;;17.30;54.20;;;;;;4977236;28;20034;-62
2022/09/22 12:26:47;;;;;;;0.65;0.60;;;17.20;54.60;;;;;;4979046;28;20065;-62
2022/09/22 12:29:13;;;;;;;1.92;0.80;;;17.30;54.20;;;;;;4978664;28;20042;-62
2022/09/22 12:31:41;;;;;;;0.70;0.60;;;17.30;54.70;;;;;;4977202;28;20031;-62
2022/09/22 12:34:18;;;;;;;0.60;0.60;;;17.30;55.20;;;;;;4978276;28;20057;-64
2022/09/22 12:36:46;;;;;;;0.73;0.63;;;17.30;53.60;;;;;;4978526;28;20065;-63
2022/09/22 12:39:26;;;;;;;1.02;0.70;;;17.40;54.50;;;;;;4976315;28;20594;-63
2022/09/22 12:41:59;;;;;;;0.60;0.50;;;17.30;53.80;;;;;;4991131;28;20038;-62
2022/09/22 12:44:37;;;;;;;1.65;0.85;;;17.40;53.40;;;;;;4996964;28;20030;-63
2022/09/22 12:47:18;;;;;;;0.82;0.40;;;17.40;53.80;;;;;;4997677;28;20034;-62
2022/09/22 12:49:54;;;;;;;0.98;0.55;;;17.40;52.50;;;;;;4995584;28;20130;-61
2022/09/22 12:52:39;;;;;;;0.75;0.57;;;17.50;52.80;;;;;;4997007;28;20037;-62
2022/09/22 12:55:18;;;;;;;1.75;0.70;;;17.50;52.70;;;;;;4996095;28;20109;-62
2022/09/22 12:57:46;;;;;;;1.65;0.60;;;17.50;53.50;;;;;;4995619;28;20061;-63
2022/09/22 13:00:31;;;;;;;1.30;0.70;;;17.50;54.00;;;;;;4996972;28;20034;-63
2022/09/22 13:02:57;;;;;;;0.88;0.60;;;17.60;53.30;;;;;;4995901;28;20030;-63
2022/09/22 13:05:23;;;;;;;0.77;0.68;;;17.60;54.10;;;;;;4996169;28;20045;-63
2022/09/22 13:07:49;;;;;;;2.15;0.60;;;17.60;54.00;;;;;;4996411;28;20034;-62
2022/09/22 13:10:23;;;;;;;0.70;0.70;;;17.70;53.90;;;;;;4996990;28;20041;-63
2022/09/22 13:13:01;;;;;;;3.08;0.77;;;17.70;53.90;;;;;;4981862;28;20100;-63
2022/09/22 13:15:48;;;;;;;0.50;0.50;;;17.70;53.00;;;;;;4995512;28;20510;-63
2022/09/22 13:18:32;;;;;;;0.50;0.50;;;17.70;52.90;;;;;;4996219;28;20093;-63
2022/09/22 13:20:58;;;;;;;0.68;0.63;;;17.80;52.10;;;;;;4996921;28;20580;-63
2022/09/22 13:23:25;;;;;;;0.50;0.50;;;17.80;53.00;;;;;;4995603;28;20042;-63
2022/09/22 13:25:51;;;;;;;3.25;0.73;;;17.80;52.90;;;;;;4995501;28;20497;-63
2022/09/22 13:28:19;;;;;;;0.55;0.50;;;17.80;53.00;;;;;;4998779;28;20054;-63
2022/09/22 13:30:56;;;;;;;1.05;0.60;;;17.80;52.50;;;;;;4994578;28;20072;-63